Time;durP1;ratioP1;P1;durP2;ratioP2;P2;SDS_P1;SDS_P2;PMS_P1;PMS_P2;Temp;Humidity;BMP_temperature;BMP_pressure;BME280_temperature;BME280_humidity;BME280_pressure;Samples;Min_cycle;Max_cycle;Signal;HPM_P1;HPM_P2
2021/10/03 00:01:01;;;;;;;1.13;0.80;;;;;;;18.16;69.54;99315.97;5041938;28;20033;-66
2021/10/03 00:03:26;;;;;;;0.82;0.70;;;;;;;17.97;69.77;99324.00;5045706;28;20369;-66
2021/10/03 00:05:52;;;;;;;2.45;0.77;;;;;;;18.01;70.16;99323.59;5042279;28;20082;-67
2021/10/03 00:08:18;;;;;;;0.77;0.60;;;;;;;18.10;68.55;99318.38;5044125;28;20070;-66
2021/10/03 00:10:43;;;;;;;0.50;0.50;;;;;;;18.10;68.31;99316.56;5060932;28;20052;-66
2021/10/03 00:13:09;;;;;;;0.93;0.50;;;;;;;18.14;68.91;99296.75;5058136;28;20047;-66
2021/10/03 00:15:35;;;;;;;2.22;0.70;;;;;;;17.97;70.85;99305.47;5041767;28;20045;-66
2021/10/03 00:18:01;;;;;;;0.85;0.60;;;;;;;18.14;69.65;99307.34;5041586;28;20037;-66
2021/10/03 00:20:27;;;;;;;2.58;0.77;;;;;;;18.31;67.50;99312.81;5059616;28;20041;-66
2021/10/03 00:22:52;;;;;;;3.17;1.40;;;;;;;18.15;69.83;99309.00;5059705;28;20028;-66
2021/10/03 00:25:18;;;;;;;0.82;0.80;;;;;;;18.17;67.95;99308.84;5041885;28;20096;-66
2021/10/03 00:27:44;;;;;;;1.30;0.98;;;;;;;18.12;69.86;99324.34;5039742;28;20034;-66
2021/10/03 00:30:10;;;;;;;0.60;0.60;;;;;;;18.19;68.06;99312.19;5057246;28;20327;-66
2021/10/03 00:32:35;;;;;;;1.00;0.73;;;;;;;18.14;69.02;99325.06;5057790;28;20074;-66
2021/10/03 00:35:01;;;;;;;1.80;0.70;;;;;;;18.26;67.25;99320.38;5056225;28;20102;-66
2021/10/03 00:37:26;;;;;;;0.90;0.50;;;;;;;17.99;69.90;99322.03;5060204;28;20045;-66
2021/10/03 00:39:52;;;;;;;0.60;0.60;;;;;;;18.22;67.38;99325.97;5055733;28;20029;-67
2021/10/03 00:42:17;;;;;;;1.38;0.88;;;;;;;18.28;67.10;99324.56;5060338;28;20422;-67
2021/10/03 00:44:42;;;;;;;0.63;0.50;;;;;;;18.27;67.48;99316.75;5052436;28;20024;-67
2021/10/03 00:47:08;;;;;;;3.70;0.65;;;;;;;18.20;67.29;99327.94;5060708;28;20048;-67
2021/10/03 00:49:36;;;;;;;1.73;0.80;;;;;;;17.94;72.32;99330.44;5049563;28;20100;-66
2021/10/03 00:52:03;;;;;;;1.80;0.70;;;;;;;18.12;67.68;99341.09;5041150;28;20231;-66
2021/10/03 00:54:28;;;;;;;1.77;0.80;;;;;;;18.29;66.99;99338.63;5058858;28;20244;-66
2021/10/03 00:56:54;;;;;;;1.20;0.80;;;;;;;18.14;69.25;99340.97;5060740;28;20045;-66
2021/10/03 00:59:19;;;;;;;1.30;0.85;;;;;;;18.29;66.85;99349.25;5052478;28;20035;-66
2021/10/03 01:02:20;;;;;;;5.22;0.90;;;;;;;18.30;68.39;99350.88;5043611;28;20037;-66
2021/10/03 01:04:46;;;;;;;1.48;0.80;;;;;;;18.29;67.46;99357.19;5027118;28;20070;-67
2021/10/03 01:07:11;;;;;;;2.20;0.73;;;;;;;18.29;67.21;99354.53;5060338;28;20262;-67
2021/10/03 01:09:37;;;;;;;0.68;0.60;;;;;;;18.26;66.72;99357.47;5059094;28;20385;-66
2021/10/03 01:12:02;;;;;;;1.08;0.82;;;;;;;18.26;68.66;99350.34;5060187;28;20049;-66
2021/10/03 01:14:28;;;;;;;0.60;0.60;;;;;;;18.27;66.75;99367.09;5049709;28;20224;-66
2021/10/03 01:16:53;;;;;;;2.08;0.57;;;;;;;18.23;68.37;99359.44;5058483;28;20037;-66
2021/10/03 01:19:18;;;;;;;1.70;0.70;;;;;;;18.25;67.28;99356.66;5055364;28;20091;-66
2021/10/03 01:21:45;;;;;;;4.47;1.15;;;;;;;18.16;67.89;99368.97;5040256;28;20032;-66
2021/10/03 01:24:10;;;;;;;1.00;0.82;;;;;;;18.34;66.33;99366.34;5049877;28;20052;-66
2021/10/03 01:26:36;;;;;;;0.73;0.65;;;;;;;18.37;66.51;99375.81;5040088;28;20044;-66
2021/10/03 01:29:01;;;;;;;1.38;0.52;;;;;;;18.28;66.37;99377.56;5040065;28;20033;-67
2021/10/03 01:31:28;;;;;;;4.45;0.80;;;;;;;18.37;65.98;99381.97;5040652;28;20362;-66
2021/10/03 01:33:53;;;;;;;1.13;0.80;;;;;;;18.40;65.92;99386.94;5050783;28;20103;-66
2021/10/03 01:36:20;;;;;;;4.05;0.60;;;;;;;18.29;66.25;99395.09;5040595;28;20171;-66
2021/10/03 01:38:45;;;;;;;2.42;0.60;;;;;;;18.23;66.09;99399.19;5038606;28;20405;-66
2021/10/03 01:41:11;;;;;;;0.80;0.80;;;;;;;18.34;66.03;99413.22;5055711;28;20033;-66
2021/10/03 01:43:36;;;;;;;1.50;0.60;;;;;;;18.10;66.98;99411.09;5050847;28;20061;-66
2021/10/03 01:46:02;;;;;;;0.88;0.60;;;;;;;18.26;66.31;99406.00;5053246;28;20048;-66
2021/10/03 01:48:27;;;;;;;0.90;0.50;;;;;;;18.09;67.27;99406.78;5059111;28;20083;-66
2021/10/03 01:50:54;;;;;;;2.60;0.60;;;;;;;17.76;67.87;99403.66;5047319;28;20037;-66
2021/10/03 01:53:25;;;;;;;1.10;0.68;;;;;;;17.73;68.01;99403.94;5041422;28;20029;-67
2021/10/03 01:55:51;;;;;;;2.95;0.80;;;;;;;17.67;68.54;99400.06;5051131;28;20032;-66
2021/10/03 01:58:17;;;;;;;1.88;0.57;;;;;;;17.94;67.18;99391.38;5058837;28;20343;-66
2021/10/03 02:00:44;;;;;;;3.58;0.85;;;;;;;17.92;67.61;99397.75;5049408;28;20037;-66
2021/10/03 02:03:09;;;;;;;1.00;0.50;;;;;;;17.61;69.58;99390.03;5049600;28;20063;-67
2021/10/03 02:05:36;;;;;;;7.10;1.40;;;;;;;17.36;70.02;99402.06;5051015;28;20391;-66
2021/10/03 02:08:02;;;;;;;0.57;0.50;;;;;;;17.79;67.99;99404.22;5037755;28;20329;-66
2021/10/03 02:10:27;;;;;;;3.35;0.90;;;;;;;17.51;69.39;99400.63;5045208;28;20368;-66
2021/10/03 02:12:53;;;;;;;1.00;0.70;;;;;;;17.72;67.86;99402.25;5051241;28;20041;-66
2021/10/03 02:15:20;;;;;;;4.63;1.42;;;;;;;17.33;70.98;99411.09;5038695;28;20355;-66
2021/10/03 02:17:51;;;;;;;3.13;0.90;;;;;;;17.69;68.02;99411.31;5044324;28;20025;-66
2021/10/03 02:20:17;;;;;;;1.60;0.70;;;;;;;17.81;67.45;99396.94;5058925;28;20028;-66
2021/10/03 02:22:42;;;;;;;1.88;0.73;;;;;;;17.79;67.63;99380.38;5055001;28;20277;-66
2021/10/03 02:25:08;;;;;;;3.85;1.30;;;;;;;17.50;70.06;99382.25;5056661;28;20473;-66
2021/10/03 02:27:34;;;;;;;5.60;1.38;;;;;;;17.36;70.07;99388.84;5056662;28;20041;-66
2021/10/03 02:30:00;;;;;;;5.43;1.20;;;;;;;17.18;71.49;99383.41;5037712;28;20029;-66
2021/10/03 02:32:25;;;;;;;3.88;1.23;;;;;;;17.38;69.76;99398.28;5038458;28;20033;-66
2021/10/03 02:34:51;;;;;;;3.75;0.82;;;;;;;17.52;68.83;99399.66;5057582;28;20044;-66
2021/10/03 02:37:16;;;;;;;3.90;1.15;;;;;;;17.40;68.82;99392.84;5058289;28;20045;-66
2021/10/03 02:39:42;;;;;;;2.05;0.77;;;;;;;17.24;70.92;99396.91;5040550;28;20116;-66
2021/10/03 02:42:07;;;;;;;1.75;1.08;;;;;;;17.39;69.32;99401.75;5037518;28;20044;-66
2021/10/03 02:44:33;;;;;;;1.05;0.60;;;;;;;17.80;67.24;99405.03;5053962;28;20107;-66
2021/10/03 02:46:58;;;;;;;1.48;0.80;;;;;;;17.63;67.97;99420.69;5058377;28;20040;-66
2021/10/03 02:49:23;;;;;;;4.15;1.20;;;;;;;17.42;69.36;99423.47;5045502;28;20029;-67
2021/10/03 02:51:50;;;;;;;2.25;0.70;;;;;;;17.64;67.94;99419.72;5042625;28;20240;-66
2021/10/03 02:54:16;;;;;;;2.80;0.98;;;;;;;17.59;69.34;99424.59;5043272;28;20332;-66
2021/10/03 02:56:41;;;;;;;4.82;1.00;;;;;;;17.27;70.90;99423.06;5040789;28;20039;-66
2021/10/03 02:59:06;;;;;;;3.65;1.15;;;;;;;17.22;70.69;99424.47;5052951;28;20363;-66
2021/10/03 03:01:32;;;;;;;2.55;0.73;;;;;;;17.38;69.25;99422.09;5062096;28;20047;-67
2021/10/03 03:03:57;;;;;;;3.38;1.13;;;;;;;17.47;69.16;99412.50;5059238;28;20056;-66
2021/10/03 03:06:23;;;;;;;3.72;1.10;;;;;;;17.37;70.69;99415.16;5062117;28;20062;-66
2021/10/03 03:08:48;;;;;;;2.53;0.77;;;;;;;17.20;69.97;99410.56;5060436;28;20020;-66
2021/10/03 03:11:14;;;;;;;3.63;0.80;;;;;;;17.06;71.29;99402.06;5062202;28;20036;-66
2021/10/03 03:13:39;;;;;;;4.47;1.00;;;;;;;16.95;72.47;99402.19;5056048;28;20053;-66
2021/10/03 03:16:05;;;;;;;6.18;1.30;;;;;;;16.56;73.74;99406.56;5042027;28;20368;-66
2021/10/03 03:18:30;;;;;;;4.97;1.15;;;;;;;16.09;78.00;99407.94;5044053;28;20056;-66
2021/10/03 03:20:55;;;;;;;8.93;1.73;;;;;;;15.81;79.12;99403.34;5061727;28;20102;-66
2021/10/03 03:23:21;;;;;;;6.53;1.30;;;;;;;16.03;77.86;99408.47;5056390;28;20045;-66
2021/10/03 03:25:46;;;;;;;4.63;0.80;;;;;;;16.35;75.40;99404.84;5062179;28;20119;-66
2021/10/03 03:28:12;;;;;;;4.38;1.27;;;;;;;16.11;77.44;99411.28;5061866;28;20033;-66
2021/10/03 03:30:37;;;;;;;5.00;1.17;;;;;;;16.09;78.28;99428.25;5043308;28;20085;-66
2021/10/03 03:33:03;;;;;;;7.30;1.42;;;;;;;16.03;78.99;99431.41;5043887;28;20037;-66
2021/10/03 03:35:29;;;;;;;5.05;1.10;;;;;;;15.85;79.39;99431.19;5044362;28;20117;-66
2021/10/03 03:37:54;;;;;;;5.78;1.33;;;;;;;16.24;76.75;99428.72;5041371;28;20045;-66
2021/10/03 03:40:20;;;;;;;2.92;0.98;;;;;;;16.92;71.42;99433.34;5042888;28;20514;-66
2021/10/03 03:42:46;;;;;;;2.08;0.77;;;;;;;17.41;68.77;99429.75;5041741;28;20056;-66
2021/10/03 03:45:11;;;;;;;3.33;0.88;;;;;;;17.49;68.99;99425.59;5048696;28;20052;-66
2021/10/03 03:47:37;;;;;;;3.25;0.55;;;;;;;17.72;67.21;99412.84;5041420;28;20326;-66
2021/10/03 03:50:03;;;;;;;4.07;0.60;;;;;;;17.52;68.06;99401.47;5051602;28;20044;-66
2021/10/03 03:52:29;;;;;;;2.97;0.82;;;;;;;17.85;66.41;99410.78;5061359;28;20087;-66
2021/10/03 03:54:54;;;;;;;5.50;1.02;;;;;;;17.15;70.65;99397.75;5052382;28;20044;-66
2021/10/03 03:57:20;;;;;;;8.10;1.77;;;;;;;16.43;73.31;99397.09;5061202;28;20091;-66
2021/10/03 03:59:45;;;;;;;6.97;1.45;;;;;;;16.81;70.87;99397.31;5055032;28;20096;-67
2021/10/03 04:02:10;;;;;;;6.18;1.10;;;;;;;16.26;72.74;99403.84;5040364;28;20033;-66
2021/10/03 04:04:36;;;;;;;3.90;0.93;;;;;;;16.39;71.78;99411.53;5044545;28;20136;-66
2021/10/03 04:07:02;;;;;;;3.58;0.68;;;;;;;16.15;71.72;99411.84;5060953;28;20041;-66
2021/10/03 04:09:27;;;;;;;4.18;0.70;;;;;;;16.16;72.31;99408.25;5059792;28;20271;-66
2021/10/03 04:11:52;;;;;;;4.63;1.33;;;;;;;15.88;72.75;99420.34;5061002;28;20037;-66
2021/10/03 04:14:18;;;;;;;5.70;0.95;;;;;;;15.79;73.44;99429.91;5060083;28;20047;-66
2021/10/03 04:16:43;;;;;;;5.38;0.90;;;;;;;15.56;74.14;99434.44;5041377;28;20033;-66
2021/10/03 04:19:09;;;;;;;6.63;1.25;;;;;;;15.47;74.18;99441.31;5041292;28;20335;-66
2021/10/03 04:21:34;;;;;;;10.63;1.42;;;;;;;15.79;72.54;99434.31;5041143;28;20029;-66
2021/10/03 04:23:59;;;;;;;6.93;0.95;;;;;;;16.28;70.67;99428.31;5040893;28;20320;-66
2021/10/03 04:26:25;;;;;;;4.05;0.70;;;;;;;16.29;70.92;99435.25;5041114;28;20342;-66
2021/10/03 04:28:51;;;;;;;5.38;0.60;;;;;;;16.10;71.64;99445.78;5041178;28;20323;-66
2021/10/03 04:31:16;;;;;;;3.03;0.60;;;;;;;16.07;71.11;99453.94;5055411;28;20103;-66
2021/10/03 04:33:42;;;;;;;5.10;0.80;;;;;;;15.76;71.44;99447.81;5060735;28;20346;-66
2021/10/03 04:36:10;;;;;;;5.43;1.00;;;;;;;15.82;73.17;99456.00;5058893;28;20396;-66
2021/10/03 04:38:37;;;;;;;4.55;0.85;;;;;;;15.06;75.12;99456.13;5060247;28;20136;-66
2021/10/03 04:41:02;;;;;;;4.20;0.77;;;;;;;14.96;76.07;99458.66;5058823;28;20049;-66
2021/10/03 04:43:28;;;;;;;6.47;1.13;;;;;;;14.77;76.03;99461.94;5060277;28;20021;-66
2021/10/03 04:45:53;;;;;;;3.85;1.35;;;;;;;14.82;76.57;99461.56;5056492;28;20045;-66
2021/10/03 04:48:19;;;;;;;5.97;1.10;;;;;;;14.52;77.07;99454.28;5060095;28;20033;-66
2021/10/03 04:50:45;;;;;;;3.97;1.42;;;;;;;14.42;77.42;99446.25;5057209;28;20039;-66
2021/10/03 04:53:10;;;;;;;8.07;1.20;;;;;;;14.52;77.82;99452.50;5060319;28;20043;-66
2021/10/03 04:55:36;;;;;;;7.53;1.42;;;;;;;14.41;78.62;99457.78;5054349;28;20045;-66
2021/10/03 04:58:01;;;;;;;9.25;1.38;;;;;;;14.45;78.68;99463.63;5060007;28;20295;-66
2021/10/03 05:00:26;;;;;;;6.60;1.27;;;;;;;14.20;79.75;99465.53;5056886;28;20033;-66
2021/10/03 05:02:53;;;;;;;6.05;1.13;;;;;;;14.27;80.18;99468.53;5060181;28;20208;-66
2021/10/03 05:05:19;;;;;;;9.38;1.50;;;;;;;13.94;81.56;99462.28;5052610;28;20082;-66
2021/10/03 05:07:45;;;;;;;5.18;1.30;;;;;;;14.25;80.16;99463.41;5059669;28;20025;-66
2021/10/03 05:10:10;;;;;;;7.45;1.50;;;;;;;14.06;81.25;99476.28;5059114;28;20055;-66
2021/10/03 05:12:35;;;;;;;8.93;1.73;;;;;;;14.21;80.77;99469.88;5038553;28;20332;-66
2021/10/03 05:15:01;;;;;;;10.07;1.40;;;;;;;14.35;80.77;99466.13;5045400;28;20048;-66
2021/10/03 05:17:26;;;;;;;13.27;1.58;;;;;;;14.05;81.41;99470.19;5041878;28;20033;-66
2021/10/03 05:19:52;;;;;;;12.68;1.58;;;;;;;14.17;80.84;99464.00;5040054;28;20185;-66
2021/10/03 05:22:17;;;;;;;6.30;1.23;;;;;;;14.40;80.38;99472.72;5054596;28;20071;-66
2021/10/03 05:24:42;;;;;;;4.35;1.20;;;;;;;14.39;80.63;99465.78;5058961;28;20044;-66
2021/10/03 05:27:08;;;;;;;4.72;1.65;;;;;;;14.06;81.85;99473.66;5053223;28;20099;-66
2021/10/03 05:29:33;;;;;;;4.78;1.27;;;;;;;14.39;80.97;99475.50;5059500;28;20033;-66
2021/10/03 05:31:59;;;;;;;11.10;1.48;;;;;;;14.32;80.76;99480.41;5058186;28;20268;-66
2021/10/03 05:34:24;;;;;;;8.93;1.27;;;;;;;14.45;79.74;99479.44;5059379;28;20040;-66
2021/10/03 05:36:50;;;;;;;7.35;1.70;;;;;;;14.33;80.36;99478.59;5053313;28;20111;-66
2021/10/03 05:39:15;;;;;;;6.93;1.20;;;;;;;14.39;79.97;99478.97;5059231;28;20078;-66
2021/10/03 05:41:41;;;;;;;8.00;1.13;;;;;;;14.19;81.34;99477.88;5055952;28;20240;-66
2021/10/03 05:44:06;;;;;;;6.18;1.40;;;;;;;14.09;81.65;99481.34;5059174;28;20045;-66
2021/10/03 05:46:31;;;;;;;5.90;1.13;;;;;;;14.04;82.17;99479.03;5052362;28;20086;-66
2021/10/03 05:48:57;;;;;;;4.75;1.10;;;;;;;14.24;81.56;99480.13;5059201;28;20370;-66
2021/10/03 05:51:22;;;;;;;5.32;1.30;;;;;;;14.56;79.20;99472.34;5055718;28;20029;-66
2021/10/03 05:53:48;;;;;;;4.40;1.10;;;;;;;14.57;79.39;99484.63;5059175;28;20045;-66
2021/10/03 05:56:13;;;;;;;7.97;1.20;;;;;;;14.47;79.54;99473.09;5050840;28;20352;-66
2021/10/03 05:58:38;;;;;;;5.45;1.38;;;;;;;14.29;80.61;99485.88;5052697;28;20025;-66
2021/10/03 06:01:04;;;;;;;6.88;1.20;;;;;;;14.46;79.77;99484.59;5039309;28;20262;-66
2021/10/03 06:03:29;;;;;;;4.40;1.25;;;;;;;14.67;78.59;99494.44;5058567;28;20219;-66
2021/10/03 06:05:55;;;;;;;6.53;1.40;;;;;;;14.30;79.80;99507.81;5058962;28;20048;-66
2021/10/03 06:08:20;;;;;;;4.38;1.63;;;;;;;14.13;80.98;99512.56;5040977;28;20136;-66
2021/10/03 06:10:46;;;;;;;8.40;1.50;;;;;;;15.27;76.59;99518.63;5058324;28;20354;-66
2021/10/03 06:13:11;;;;;;;3.78;1.58;;;;;;;14.26;79.99;99519.53;5058246;28;20032;-66
2021/10/03 06:15:43;;;;;;;4.20;1.00;;;;;;;14.33;79.72;99526.81;5051949;28;20033;-65
2021/10/03 06:18:09;;;;;;;6.75;1.90;;;;;;;14.33;80.45;99528.63;5049245;28;20037;-65
2021/10/03 06:20:35;;;;;;;10.32;1.70;;;;;;;14.61;79.84;99524.72;5052084;28;20343;-65
2021/10/03 06:23:00;;;;;;;7.07;1.45;;;;;;;14.23;81.03;99543.47;5057446;28;20043;-65
2021/10/03 06:25:26;;;;;;;7.85;1.45;;;;;;;13.99;81.80;99537.31;5057717;28;20265;-65
2021/10/03 06:27:51;;;;;;;5.82;1.30;;;;;;;14.29;81.27;99540.34;5055240;28;20220;-65
2021/10/03 06:30:17;;;;;;;11.38;1.48;;;;;;;14.26;80.57;99544.09;5046140;28;20033;-65
2021/10/03 06:32:42;;;;;;;5.70;1.60;;;;;;;14.55;80.66;99544.47;5052630;28;20068;-65
2021/10/03 06:35:08;;;;;;;3.58;1.10;;;;;;;14.47;79.43;99548.63;5053190;28;20070;-65
2021/10/03 06:37:33;;;;;;;4.20;1.20;;;;;;;14.15;81.31;99550.16;5054498;28;20102;-65
2021/10/03 06:39:59;;;;;;;6.78;1.33;;;;;;;14.00;81.18;99557.41;5051228;28;20055;-65
2021/10/03 06:42:24;;;;;;;3.78;1.23;;;;;;;13.86;81.74;99554.13;5038863;28;20033;-65
2021/10/03 06:44:50;;;;;;;4.32;0.88;;;;;;;13.94;81.46;99559.69;5050067;28;20379;-65
2021/10/03 06:47:15;;;;;;;7.78;1.33;;;;;;;14.30;80.49;99556.03;5044069;28;20099;-66
2021/10/03 06:49:41;;;;;;;4.90;1.13;;;;;;;13.99;81.20;99552.28;5048736;28;20208;-65
2021/10/03 06:52:07;;;;;;;5.72;1.23;;;;;;;13.63;82.39;99551.44;5043178;28;20044;-65
2021/10/03 06:54:33;;;;;;;6.72;1.10;;;;;;;13.78;82.65;99559.97;5048829;28;20061;-65
2021/10/03 06:56:58;;;;;;;2.95;1.10;;;;;;;13.99;81.96;99557.53;5054197;28;20045;-65
2021/10/03 06:59:24;;;;;;;4.15;1.50;;;;;;;13.58;83.22;99561.44;5043845;28;20043;-66
2021/10/03 07:01:50;;;;;;;7.53;1.85;;;;;;;13.62;83.22;99555.88;5070151;28;20049;-66
2021/10/03 07:04:15;;;;;;;5.95;1.20;;;;;;;13.72;82.96;99560.44;5050718;28;20354;-66
2021/10/03 07:06:41;;;;;;;6.55;1.30;;;;;;;13.89;82.47;99565.28;5063191;28;20045;-65
2021/10/03 07:09:06;;;;;;;5.35;1.73;;;;;;;13.86;82.59;99568.16;5056094;28;20244;-66
2021/10/03 07:11:32;;;;;;;7.10;1.67;;;;;;;13.84;82.65;99577.94;5049977;28;20037;-65
2021/10/03 07:13:57;;;;;;;5.35;1.58;;;;;;;13.69;83.38;99572.00;5045924;28;20036;-65
2021/10/03 07:16:23;;;;;;;6.55;2.05;;;;;;;13.73;83.26;99581.34;5045632;28;20030;-65
2021/10/03 07:18:48;;;;;;;4.18;2.50;;;;;;;13.84;82.88;99577.94;5054597;28;20072;-65
2021/10/03 07:21:13;;;;;;;6.78;2.17;;;;;;;13.87;82.56;99576.88;5054467;28;20393;-65
2021/10/03 07:23:39;;;;;;;6.25;3.17;;;;;;;14.47;80.47;99581.09;5046039;28;20029;-65
2021/10/03 07:26:05;;;;;;;7.00;2.08;;;;;;;14.20;81.21;99579.59;5042631;28;20585;-66
2021/10/03 07:28:31;;;;;;;6.63;2.00;;;;;;;13.80;82.79;99576.47;5048630;28;20040;-67
2021/10/03 07:30:57;;;;;;;3.67;2.30;;;;;;;13.83;83.10;99587.63;5049449;28;20494;-68
2021/10/03 07:33:22;;;;;;;5.63;2.85;;;;;;;13.96;82.85;99584.91;5025150;28;20029;-67
2021/10/03 07:35:48;;;;;;;4.47;2.90;;;;;;;13.88;83.68;99581.16;5049813;28;20033;-67
2021/10/03 07:38:13;;;;;;;8.45;2.75;;;;;;;13.85;83.80;99578.78;5059635;28;20049;-67
2021/10/03 07:40:39;;;;;;;5.90;1.95;;;;;;;13.75;83.50;99582.09;5053647;28;20400;-67
2021/10/03 07:43:04;;;;;;;4.78;2.50;;;;;;;13.97;83.04;99585.75;5052828;28;20100;-67
2021/10/03 07:45:29;;;;;;;5.97;2.60;;;;;;;14.01;83.17;99589.84;5057727;28;20238;-67
2021/10/03 07:47:55;;;;;;;5.65;2.00;;;;;;;13.82;83.70;99600.88;5057165;28;20351;-67
2021/10/03 07:50:20;;;;;;;5.80;2.05;;;;;;;14.23;84.24;99604.88;5058995;28;20055;-67
2021/10/03 07:52:46;;;;;;;5.72;1.55;;;;;;;14.34;82.54;99601.41;5058412;28;20039;-67
2021/10/03 07:55:11;;;;;;;5.28;1.55;;;;;;;14.06;83.02;99607.91;5058354;28;20355;-67
2021/10/03 07:57:37;;;;;;;4.88;1.52;;;;;;;13.94;83.13;99609.69;5059318;28;20037;-67
2021/10/03 08:00:04;;;;;;;4.07;1.30;;;;;;;14.25;83.51;99607.38;5057607;28;20075;-67
2021/10/03 08:02:29;;;;;;;3.03;1.27;;;;;;;14.95;81.58;99609.03;5060384;28;20032;-67
2021/10/03 08:04:54;;;;;;;5.40;1.10;;;;;;;16.37;77.22;99603.72;5053976;28;20044;-69
2021/10/03 08:07:20;;;;;;;6.03;1.25;;;;;;;16.96;74.93;99607.50;5046562;28;20051;-69
2021/10/03 08:09:45;;;;;;;2.85;0.75;;;;;;;17.20;73.68;99607.16;5059955;28;20040;-67
2021/10/03 08:12:10;;;;;;;2.78;1.15;;;;;;;17.36;73.01;99598.69;5060251;28;20036;-68
2021/10/03 08:14:36;;;;;;;4.72;1.00;;;;;;;17.42;72.55;99598.16;5052808;28;20041;-68
2021/10/03 08:17:01;;;;;;;10.38;0.93;;;;;;;17.50;72.38;99594.84;5053194;28;20096;-67
2021/10/03 08:19:29;;;;;;;6.30;1.05;;;;;;;17.56;72.08;99599.56;5053392;28;20240;-68
2021/10/03 08:21:54;;;;;;;5.10;1.10;;;;;;;17.65;72.09;99617.28;5057825;28;20366;-67
2021/10/03 08:24:20;;;;;;;4.68;1.08;;;;;;;17.72;71.68;99619.34;5049562;28;20033;-68
2021/10/03 08:26:45;;;;;;;5.20;1.50;;;;;;;17.69;71.95;99619.66;5047161;28;20029;-67
2021/10/03 08:29:11;;;;;;;4.05;0.90;;;;;;;17.74;71.50;99623.56;5054276;28;20362;-68
2021/10/03 08:31:36;;;;;;;6.82;1.13;;;;;;;17.82;71.78;99628.16;5050820;28;20079;-71
2021/10/03 08:34:02;;;;;;;5.35;1.10;;;;;;;17.87;71.19;99627.78;5053092;28;20049;-70
2021/10/03 08:36:27;;;;;;;3.35;1.02;;;;;;;17.86;71.43;99626.09;5059744;28;20197;-69
2021/10/03 08:38:53;;;;;;;7.97;1.10;;;;;;;17.86;71.41;99631.41;5055207;28;20045;-68
2021/10/03 08:41:19;;;;;;;4.85;1.10;;;;;;;17.90;71.33;99638.06;5060164;28;20037;-68
2021/10/03 08:43:45;;;;;;;9.88;1.15;;;;;;;18.02;71.09;99629.03;5056095;28;20043;-68
2021/10/03 08:46:10;;;;;;;2.90;1.13;;;;;;;18.12;70.47;99634.31;5055949;28;20048;-68
2021/10/03 08:48:35;;;;;;;6.82;1.40;;;;;;;18.18;70.37;99636.41;5053162;28;20037;-69
2021/10/03 08:51:01;;;;;;;6.55;0.98;;;;;;;18.19;70.21;99628.34;5053750;28;20039;-70
2021/10/03 08:53:26;;;;;;;6.68;1.00;;;;;;;18.04;70.68;99629.72;5058555;28;20069;-68
2021/10/03 08:55:56;;;;;;;4.68;0.77;;;;;;;18.15;70.83;99629.56;5053887;28;20056;-68
2021/10/03 08:58:22;;;;;;;5.95;1.00;;;;;;;18.14;70.41;99625.25;5056481;28;20255;-68
2021/10/03 09:00:48;;;;;;;4.35;1.00;;;;;;;18.30;70.36;99637.09;5054942;28;20021;-69
2021/10/03 09:03:14;;;;;;;4.85;1.00;;;;;;;18.43;69.43;99650.91;5053701;28;20033;-70
2021/10/03 09:05:50;;;;;;;2.97;0.90;;;;;;;18.38;68.86;99655.78;5055322;28;20221;-70
2021/10/03 09:08:25;;;;;;;6.38;0.77;;;;;;;18.16;68.83;99662.22;5057874;28;20040;-70
2021/10/03 09:11:03;;;;;;;3.47;0.70;;;;;;;18.17;68.57;99671.81;5048554;28;20064;-70
2021/10/03 09:13:31;;;;;;;2.63;0.65;;;;;;;18.16;68.38;99654.28;5057529;28;20044;-70
2021/10/03 09:16:04;;;;;;;4.43;0.60;;;;;;;18.19;67.38;99660.13;5051689;28;20062;-69
2021/10/03 09:18:56;;;;;;;7.97;0.75;;;;;;;18.17;67.59;99659.44;5050138;28;20112;-70
2021/10/03 09:21:31;;;;;;;1.55;0.70;;;;;;;18.16;67.64;99662.22;5050821;28;20053;-70
2021/10/03 09:24:20;;;;;;;5.00;0.90;;;;;;;18.20;66.82;99653.84;5051858;28;20033;-70
2021/10/03 09:27:00;;;;;;;4.68;0.80;;;;;;;18.18;66.70;99652.31;5049240;28;20075;-71
2021/10/03 09:29:34;;;;;;;1.92;0.60;;;;;;;18.13;66.99;99647.41;5055649;28;20033;-71
2021/10/03 09:32:26;;;;;;;1.02;0.60;;;;;;;18.11;66.92;99651.19;5048231;28;20032;-71
2021/10/03 09:34:52;;;;;;;1.83;0.80;;;;;;;18.03;66.79;99651.91;5046965;28;20053;-71
2021/10/03 09:37:24;;;;;;;3.25;1.00;;;;;;;18.13;66.93;99662.50;5047849;28;20572;-70
2021/10/03 09:39:51;;;;;;;2.95;0.80;;;;;;;18.09;67.38;99674.34;5047902;28;20547;-70
2021/10/03 09:42:17;;;;;;;3.45;0.95;;;;;;;18.11;67.05;99672.41;5048697;28;20077;-69
2021/10/03 09:45:05;;;;;;;1.60;0.63;;;;;;;18.07;66.73;99669.19;5029161;28;20232;-69
2021/10/03 09:47:30;;;;;;;1.10;0.50;;;;;;;18.11;67.00;99673.22;5048889;28;20092;-70
2021/10/03 09:49:55;;;;;;;1.33;0.65;;;;;;;18.13;66.46;99683.69;5052119;28;20111;-69
2021/10/03 09:52:21;;;;;;;1.17;0.52;;;;;;;18.09;66.72;99685.78;5045209;28;20411;-68
2021/10/03 09:54:47;;;;;;;1.48;0.77;;;;;;;18.14;66.94;99690.69;5044385;28;20045;-69
2021/10/03 09:57:15;;;;;;;1.83;0.80;;;;;;;18.26;66.62;99692.19;5053252;28;20033;-69
2021/10/03 09:59:42;;;;;;;4.10;0.85;;;;;;;18.34;66.52;99688.84;5056875;28;20059;-68
2021/10/03 10:02:07;;;;;;;2.15;0.75;;;;;;;18.36;66.70;99690.38;5059111;28;20056;-68
2021/10/03 10:04:32;;;;;;;1.83;0.60;;;;;;;18.40;66.61;99680.34;5058723;28;20350;-68
2021/10/03 10:06:59;;;;;;;1.50;0.45;;;;;;;18.41;66.84;99682.84;5058912;28;20321;-69
2021/10/03 10:09:24;;;;;;;3.72;0.77;;;;;;;18.38;67.14;99692.88;5058364;28;20043;-69
2021/10/03 10:11:52;;;;;;;5.65;0.75;;;;;;;18.39;66.71;99694.53;5053714;28;20472;-69
2021/10/03 10:14:17;;;;;;;4.22;0.90;;;;;;;18.39;67.33;99686.59;5057004;28;20111;-70
2021/10/03 10:16:44;;;;;;;2.65;0.60;;;;;;;18.37;67.42;99700.00;5047078;28;20036;-70
2021/10/03 10:19:36;;;;;;;2.00;0.60;;;;;;;18.47;67.19;99696.53;5061506;28;20040;-69
2021/10/03 10:22:11;;;;;;;2.85;0.63;;;;;;;18.65;66.48;99694.00;5055558;28;20083;-70
2021/10/03 10:25:06;;;;;;;1.15;0.60;;;;;;;18.41;66.75;99705.88;5058219;28;20115;-68
2021/10/03 10:27:58;;;;;;;1.90;0.80;;;;;;;18.47;67.31;99720.38;5057353;28;20051;-68
2021/10/03 10:30:23;;;;;;;3.75;0.57;;;;;;;18.51;67.31;99721.75;5057791;28;20035;-68
2021/10/03 10:32:54;;;;;;;4.43;0.40;;;;;;;18.52;67.07;99711.03;5058809;28;20049;-68
2021/10/03 10:35:20;;;;;;;2.40;0.50;;;;;;;18.36;68.14;99724.84;5063959;28;20033;-68
2021/10/03 10:37:48;;;;;;;3.90;0.90;;;;;;;18.50;67.62;99731.53;5061395;28;20259;-68
2021/10/03 10:40:23;;;;;;;1.25;0.60;;;;;;;18.68;66.96;99736.09;5059080;28;20025;-68
2021/10/03 10:42:55;;;;;;;2.15;0.70;;;;;;;18.59;67.48;99725.38;5048149;28;20325;-68
2021/10/03 10:45:26;;;;;;;5.38;0.73;;;;;;;18.62;67.30;99742.81;5055072;28;20048;-68
2021/10/03 10:48:18;;;;;;;6.65;0.70;;;;;;;18.61;67.41;99768.50;5053439;28;20032;-68
2021/10/03 10:50:49;;;;;;;4.15;0.65;;;;;;;18.70;67.03;99777.44;5052017;28;20108;-68
2021/10/03 10:53:14;;;;;;;9.23;0.70;;;;;;;18.65;67.84;99784.13;5053142;28;20049;-68
2021/10/03 10:55:40;;;;;;;3.97;0.77;;;;;;;18.88;67.00;99782.91;5050771;28;20017;-68
2021/10/03 10:58:05;;;;;;;4.57;0.80;;;;;;;18.85;66.91;99783.19;5046421;28;20067;-68
2021/10/03 11:00:31;;;;;;;3.75;0.80;;;;;;;18.87;67.29;99788.34;5051736;28;20040;-69
2021/10/03 11:03:01;;;;;;;8.85;0.77;;;;;;;18.92;66.92;99805.50;5047107;28;20029;-68
2021/10/03 11:05:36;;;;;;;1.13;0.38;;;;;;;18.90;67.29;99833.13;5047969;28;20045;-68
2021/10/03 11:08:08;;;;;;;7.80;1.13;;;;;;;18.98;67.15;99820.84;5043977;28;20224;-69
2021/10/03 11:10:59;;;;;;;3.63;0.68;;;;;;;19.01;66.95;99803.81;5053651;28;20045;-67
2021/10/03 11:13:44;;;;;;;3.53;0.70;;;;;;;18.89;67.36;99802.28;5051818;28;20067;-68
2021/10/03 11:16:22;;;;;;;3.63;0.40;;;;;;;18.82;66.36;99798.53;5046864;28;20048;-68
2021/10/03 11:18:51;;;;;;;3.47;0.50;;;;;;;18.90;67.41;99819.88;5069023;28;20037;-68
2021/10/03 11:21:20;;;;;;;5.20;0.70;;;;;;;18.85;67.73;99816.81;5053424;28;20390;-69
2021/10/03 11:23:46;;;;;;;;;;;;;;;18.89;67.46;99811.09;5070126;28;20047;-69
2021/10/03 11:26:11;;;;;;;10.82;1.10;;;;;;;18.92;67.69;99818.78;5069949;28;19921;-68
2021/10/03 11:28:56;;;;;;;3.00;0.60;;;;;;;18.85;67.67;99807.03;5065906;28;20197;-68
2021/10/03 11:31:48;;;;;;;5.95;0.60;;;;;;;19.03;67.43;99827.53;5059323;28;20316;-68
2021/10/03 11:34:36;;;;;;;7.55;0.82;;;;;;;18.89;67.54;99836.78;5050275;28;20048;-69